Check out our new BloomSky Weather System.

Active alerts


No alerts


Thunder radar  blitzortung!


Rain radar more information rain snow radar


Visit our other weather sites:

Template documentation
and downloads

And another site



Weather Underground History page Text

Daily Summary for April 15, 2017 Units:  English    Metric   Both
« Previous Day
Next Day »
Daily Weekly Monthly Yearly Custom
  High: Low: Average:
Temperature: TemperatureF °F 62.4 °F 73.1 °F
Dew Point: DewpointF °F 60.1 °F 65.2 °F
Humidity: Humidity % 53 % 78 %
Wind Speed: WindSpeedMPH mph 0.0 mph 2.6 mph
Wind Gust: WindSpeedGustMPH mph - -
Wind:- - SSE
Pressure: PressureIn in 29.99 in -
Precipitation: 0.00 in    
Historical Graphs
 
 
Tabular Data for April 15, 2017
Time Temperature Dew Point Pressure Wind Wind Speed Wind Gust Humidity Rainfall Rate (Hourly)
TemperatureF °F DewpointF °F PressureIn in Calm     Humidity % HourlyPrecipIn in
00:00 68.4 °F 65.7 °F 30.05 in Calm   1.0 mph 91 % 0.00 in
00:05 68.2 °F 65.5 °F 30.05 in Calm   1.0 mph 91 % 0.00 in
00:10 68.0 °F 65.3 °F 30.05 in Calm   1.0 mph 91 % 0.00 in
00:15 67.6 °F 64.9 °F 30.05 in Calm   1.0 mph 91 % 0.00 in
00:20 67.5 °F 65.1 °F 30.05 in Calm     92 % 0.00 in
00:25 67.3 °F 64.9 °F 30.05 in Calm     92 % 0.00 in
00:30 66.9 °F 64.6 °F 30.05 in Calm     92 % 0.00 in
00:35 66.7 °F 64.4 °F 30.05 in Calm     92 % 0.00 in
00:40 66.6 °F 64.4 °F 30.05 in Calm     93 % 0.00 in
00:45 66.4 °F 64.2 °F 30.05 in Calm     93 % 0.00 in
00:50 66.0 °F 63.9 °F 30.05 in Calm     93 % 0.00 in
00:55 66.0 °F 64.2 °F 30.05 in Calm     94 % 0.00 in
01:00 65.8 °F 64.0 °F 30.05 in Calm     94 % 0.00 in
01:05 65.7 °F 63.9 °F 30.05 in Calm     94 % 0.00 in
01:10 65.5 °F 63.7 °F 30.05 in Calm     94 % 0.00 in
01:15 65.1 °F 63.3 °F 30.05 in Calm     94 % 0.00 in
01:20 65.1 °F 63.7 °F 30.05 in Calm     95 % 0.00 in
01:25 65.1 °F 63.7 °F 30.04 in Calm     95 % 0.00 in
01:30 65.1 °F 63.7 °F 30.04 in Calm     95 % 0.00 in
01:35 65.1 °F 63.7 °F 30.04 in Calm     95 % 0.00 in
01:40 65.1 °F 63.7 °F 30.04 in Calm     95 % 0.00 in
01:46 64.9 °F 63.5 °F 30.04 in Calm     95 % 0.00 in
01:51 64.9 °F 63.5 °F 30.04 in Calm   1.0 mph 95 % 0.00 in
01:56 64.9 °F 63.5 °F 30.04 in Calm   1.0 mph 95 % 0.00 in
02:01 64.9 °F 63.5 °F 30.04 in Calm   1.0 mph 95 % 0.00 in
02:06 64.8 °F 63.3 °F 30.04 in Calm     95 % 0.00 in
02:11 64.6 °F 63.1 °F 30.04 in Calm     95 % 0.00 in
02:16 64.6 °F 63.1 °F 30.04 in Calm     95 % 0.00 in
02:21 64.4 °F 63.3 °F 30.04 in Calm     96 % 0.00 in
02:26 64.4 °F 63.0 °F 30.04 in Calm     95 % 0.00 in
02:31 64.2 °F 63.1 °F 30.04 in Calm     96 % 0.00 in
02:36 64.2 °F 63.1 °F 30.03 in Calm     96 % 0.00 in
02:41 64.2 °F 63.1 °F 30.03 in Calm     96 % 0.00 in
02:46 64.2 °F 63.1 °F 30.04 in Calm     96 % 0.00 in
02:51 64.2 °F 63.1 °F 30.03 in Calm     96 % 0.00 in
02:56 64.2 °F 63.1 °F 30.03 in Calm     96 % 0.00 in
03:01 64.0 °F 63.0 °F 30.03 in Calm     96 % 0.00 in
03:06 64.0 °F 63.0 °F 30.03 in Calm     96 % 0.00 in
03:11 64.0 °F 63.0 °F 30.03 in Calm     96 % 0.00 in
03:16 64.0 °F 63.0 °F 30.03 in Calm     96 % 0.00 in
03:21 63.9 °F 62.8 °F 30.02 in Calm     96 % 0.00 in
03:26 63.9 °F 62.8 °F 30.02 in Calm     96 % 0.00 in
03:31 63.7 °F 62.6 °F 30.02 in Calm     96 % 0.00 in
03:36 63.5 °F 62.4 °F 30.02 in Calm     96 % 0.00 in
03:41 63.5 °F 62.6 °F 30.02 in Calm     97 % 0.00 in
03:46 63.7 °F 62.8 °F 30.02 in Calm     97 % 0.00 in
03:51 63.9 °F 63.0 °F 30.02 in Calm   2.0 mph 97 % 0.00 in
03:56 63.7 °F 62.8 °F 30.01 in Calm   2.0 mph 97 % 0.00 in
04:01 63.7 °F 62.8 °F 30.02 in Calm   2.0 mph 97 % 0.00 in
04:06 63.3 °F 62.4 °F 30.02 in Calm     97 % 0.00 in
04:11 63.1 °F 62.1 °F 30.02 in Calm     96 % 0.00 in
04:16 63.1 °F 62.2 °F 30.02 in Calm     97 % 0.00 in
04:21 63.1 °F 62.2 °F 30.02 in Calm     97 % 0.00 in
04:26 63.0 °F 62.1 °F 30.02 in Calm     97 % 0.00 in
04:31 63.0 °F 62.1 °F 30.02 in Calm     97 % 0.00 in
04:36 63.1 °F 62.2 °F 30.02 in Calm     97 % 0.00 in
04:41 63.1 °F 62.2 °F 30.02 in Calm     97 % 0.00 in
04:46 63.1 °F 62.2 °F 30.02 in Calm     97 % 0.00 in
04:52 63.3 °F 62.8 °F 30.02 in Calm   1.0 mph 98 % 0.00 in
04:57 63.3 °F 62.4 °F 30.03 in Calm   1.0 mph 97 % 0.00 in
05:02 63.5 °F 63.0 °F 30.03 in Calm   1.0 mph 98 % 0.00 in
05:07 63.7 °F 63.1 °F 30.03 in Calm   1.0 mph 98 % 0.00 in
05:12 63.7 °F 63.1 °F 30.03 in Calm   1.0 mph 98 % 0.00 in
05:17 63.7 °F 62.8 °F 30.02 in Calm   1.0 mph 97 % 0.00 in
05:22 63.3 °F 62.4 °F 30.02 in Calm     97 % 0.00 in
05:27 63.1 °F 62.2 °F 30.02 in Calm     97 % 0.00 in
05:32 63.0 °F 62.1 °F 30.03 in Calm     97 % 0.00 in
05:37 63.0 °F 62.1 °F 30.03 in Calm     97 % 0.00 in
05:42 63.0 °F 62.4 °F 30.03 in Calm     98 % 0.00 in
05:47 63.0 °F 62.4 °F 30.03 in Calm     98 % 0.00 in
05:52 62.8 °F 62.2 °F 30.02 in Calm   1.0 mph 98 % 0.00 in
05:57 62.6 °F 62.1 °F 30.03 in Calm   1.0 mph 98 % 0.00 in
06:02 62.6 °F 62.1 °F 30.03 in Calm   1.0 mph 98 % 0.00 in
06:07 62.4 °F 61.9 °F 30.03 in Calm     98 % 0.00 in
06:12 62.6 °F 62.1 °F 30.03 in Calm     98 % 0.00 in
06:17 62.8 °F 62.2 °F 30.03 in Calm     98 % 0.00 in
06:22 62.8 °F 62.2 °F 30.03 in Calm     98 % 0.00 in
06:26 63.0 °F 62.4 °F 30.03 in Calm     98 % 0.00 in
06:32 63.1 °F 62.6 °F 30.03 in Calm   1.0 mph 98 % 0.00 in
06:37 63.1 °F 62.6 °F 30.03 in Calm   1.0 mph 98 % 0.00 in
06:42 63.3 °F 62.8 °F 30.04 in Calm   1.0 mph 98 % 0.00 in
06:47 63.3 °F 62.8 °F 30.04 in NE 1.0 mph   98 % 0.00 in
06:52 63.5 °F 63.0 °F 30.04 in Calm   1.0 mph 98 % 0.00 in
06:57 63.7 °F 63.1 °F 30.04 in Calm   1.0 mph 98 % 0.00 in
07:02 63.9 °F 63.5 °F 30.04 in Calm   1.0 mph 99 % 0.00 in
07:07 64.0 °F 63.7 °F 30.05 in Calm   1.0 mph 99 % 0.00 in
07:12 64.2 °F 63.9 °F 30.05 in Calm   1.0 mph 99 % 0.00 in
07:17 64.2 °F 63.7 °F 30.05 in Calm   1.0 mph 98 % 0.00 in
07:22 64.2 °F 63.7 °F 30.05 in Calm   3.0 mph 98 % 0.00 in
07:27 64.4 °F 63.9 °F 30.05 in Calm   3.0 mph 98 % 0.00 in
07:32 64.6 °F 64.2 °F 30.05 in Calm   3.0 mph 99 % 0.00 in
07:37 64.6 °F 64.2 °F 30.05 in Calm   2.0 mph 99 % 0.00 in
07:42 64.8 °F 64.2 °F 30.05 in Calm   2.0 mph 98 % 0.00 in
07:47 64.8 °F 64.4 °F 30.06 in Calm   1.0 mph 99 % 0.00 in
07:52 64.9 °F 64.6 °F 30.06 in Calm   1.0 mph 99 % 0.00 in
07:57 64.9 °F 64.6 °F 30.06 in Calm   1.0 mph 99 % 0.00 in
08:02 65.1 °F 64.8 °F 30.06 in Calm   1.0 mph 99 % 0.00 in
08:07 65.5 °F 65.1 °F 30.06 in East 1.0 mph 2.0 mph 99 % 0.00 in
08:12 65.5 °F 65.1 °F 30.06 in Calm   3.0 mph 99 % 0.00 in
08:17 65.8 °F 65.5 °F 30.06 in ENE 1.0 mph 3.0 mph 99 % 0.00 in
08:22 65.8 °F 65.5 °F 30.06 in Calm   3.0 mph 99 % 0.00 in
08:27 66.4 °F 66.0 °F 30.06 in Calm   2.0 mph 99 % 0.00 in
08:32 66.4 °F 66.0 °F 30.07 in Calm   2.0 mph 99 % 0.00 in
08:37 66.6 °F 66.2 °F 30.06 in Calm   1.0 mph 99 % 0.00 in
08:42 66.9 °F 66.6 °F 30.06 in Calm   1.0 mph 99 % 0.00 in
08:47 67.5 °F 67.1 °F 30.06 in Calm   1.0 mph 99 % 0.00 in
08:52 67.5 °F 67.1 °F 30.06 in Calm   1.0 mph 99 % 0.00 in
08:57 68.0 °F 67.6 °F 30.06 in Calm   1.0 mph 99 % 0.00 in
09:02 68.5 °F 68.2 °F 30.07 in Calm   1.0 mph 99 % 0.00 in
09:07 68.7 °F 68.4 °F 30.07 in Calm   2.0 mph 99 % 0.00 in
09:12 69.6 °F 69.3 °F 30.07 in Calm   2.0 mph 99 % 0.00 in
09:17 70.2 °F 69.6 °F 30.07 in Calm   2.0 mph 98 % 0.00 in
09:22 70.9 °F 70.5 °F 30.08 in Calm   2.0 mph 99 % 0.00 in
09:27 71.2 °F 70.7 °F 30.08 in SE 1.0 mph 2.0 mph 98 % 0.00 in
09:32 71.4 °F 70.5 °F 30.08 in South 1.0 mph 3.0 mph 97 % 0.00 in
09:37 71.8 °F 70.9 °F 30.08 in Calm   3.0 mph 97 % 0.00 in
09:42 72.1 °F 70.9 °F 30.08 in SE 2.0 mph 4.0 mph 96 % 0.00 in
09:47 72.0 °F 70.2 °F 30.08 in SSE 3.0 mph 5.0 mph 94 % 0.00 in
09:52 72.5 °F 70.7 °F 30.08 in SSE 2.0 mph 5.0 mph 94 % 0.00 in
09:57 73.0 °F 70.3 °F 30.08 in SSW 1.0 mph 5.0 mph 91 % 0.00 in
10:02 73.9 °F 70.2 °F 30.08 in SE 4.0 mph 5.0 mph 88 % 0.00 in
10:07 74.8 °F 70.0 °F 30.08 in SSE 4.0 mph 6.0 mph 85 % 0.00 in
10:12 75.2 °F 69.3 °F 30.08 in SSE 3.0 mph 9.0 mph 82 % 0.00 in
10:17 75.2 °F 68.9 °F 30.08 in ESE 4.0 mph 9.0 mph 81 % 0.00 in
10:22 75.2 °F 68.9 °F 30.08 in SE 3.0 mph 9.0 mph 81 % 0.00 in
10:27 75.6 °F 69.6 °F 30.08 in SE 3.0 mph 8.0 mph 82 % 0.00 in
10:32 76.1 °F 69.4 °F 30.08 in SSE 3.0 mph 7.0 mph 80 % 0.00 in
10:37 76.5 °F 69.1 °F 30.09 in SSW 4.0 mph 7.0 mph 78 % 0.00 in
10:38 76.5 °F 69.1 °F 30.09 in South 3.0 mph 7.0 mph 78 % 0.00 in
10:43 76.6 °F 69.3 °F 30.08 in SSE 1.0 mph 7.0 mph 78 % 0.00 in
10:48 77.2 °F 69.1 °F 30.08 in ESE 4.0 mph 7.0 mph 76 % 0.00 in
10:53 76.8 °F 67.8 °F 30.08 in South 4.0 mph 6.0 mph 74 % 0.00 in
10:58 76.6 °F 68.5 °F 30.08 in SE 3.0 mph 9.0 mph 76 % 0.00 in
11:03 76.5 °F 68.7 °F 30.08 in ESE 2.0 mph 9.0 mph 77 % 0.00 in
11:08 76.6 °F 68.5 °F 30.08 in South 3.0 mph 9.0 mph 76 % 0.00 in
11:10 76.6 °F 68.2 °F 30.08 in ESE 2.0 mph 7.0 mph 75 % 0.00 in
11:15 76.8 °F 69.4 °F 30.08 in SSW 2.0 mph 5.0 mph 78 % 0.00 in
11:20 77.4 °F 68.9 °F 30.08 in SSE 4.0 mph 10.0 mph 75 % 0.00 in
11:25 78.4 °F 67.8 °F 30.08 in SSW 6.0 mph 10.0 mph 70 % 0.00 in
11:26 78.4 °F 67.8 °F 30.08 in SE 4.0 mph 10.0 mph 70 % 0.00 in
11:31 78.6 °F 67.1 °F 30.08 in ESE 6.0 mph 10.0 mph 68 % 0.00 in
11:36 78.8 °F 68.2 °F 30.08 in SSE 8.0 mph 10.0 mph 70 % 0.00 in
11:41 79.0 °F 67.5 °F 30.08 in SSE 3.0 mph 10.0 mph 68 % 0.00 in
11:46 79.2 °F 68.5 °F 30.08 in South 1.0 mph 10.0 mph 70 % 0.00 in
11:51 79.5 °F 68.0 °F 30.07 in SSW 3.0 mph 9.0 mph 68 % 0.00 in
11:56 79.9 °F 67.5 °F 30.07 in ESE 8.0 mph 9.0 mph 66 % 0.00 in
12:01 80.1 °F 67.6 °F 30.07 in South 6.0 mph 9.0 mph 66 % 0.00 in
12:06 80.2 °F 67.5 °F 30.07 in South 5.0 mph 9.0 mph 65 % 0.00 in
12:11 80.4 °F 68.9 °F 30.07 in SE 2.0 mph 10.0 mph 68 % 0.00 in
12:16 80.6 °F 67.3 °F 30.07 in SE 6.0 mph 10.0 mph 64 % 0.00 in
12:21 80.8 °F 66.9 °F 30.07 in ESE 3.0 mph 10.0 mph 63 % 0.00 in
12:26 80.8 °F 68.0 °F 30.07 in East 3.0 mph 9.0 mph 65 % 0.00 in
12:31 81.0 °F 67.1 °F 30.06 in ESE 3.0 mph 16.0 mph 63 % 0.00 in
12:36 81.3 °F 68.0 °F 30.06 in SE 5.0 mph 16.0 mph 64 % 0.00 in
12:41 81.7 °F 67.5 °F 30.06 in SE 5.0 mph 16.0 mph 62 % 0.00 in
12:46 81.7 °F 66.9 °F 30.06 in SSE 5.0 mph 9.0 mph 61 % 0.00 in
12:51 81.7 °F 66.9 °F 30.06 in SSE 6.0 mph 10.0 mph 61 % 0.00 in
12:56 81.9 °F 66.2 °F 30.06 in SE 9.0 mph 11.0 mph 59 % 0.00 in
13:01 82.0 °F 66.7 °F 30.06 in SE 4.0 mph 13.0 mph 60 % 0.00 in
13:06 82.2 °F 66.0 °F 30.06 in SE 2.0 mph 13.0 mph 58 % 0.00 in
13:11 82.0 °F 66.4 °F 30.06 in ESE 5.0 mph 13.0 mph 59 % 0.00 in
13:16 82.2 °F 67.5 °F 30.05 in SE 4.0 mph 11.0 mph 61 % 0.00 in
13:21 82.8 °F 66.0 °F 30.05 in SE 6.0 mph 11.0 mph 57 % 0.00 in
13:26 82.6 °F 65.8 °F 30.05 in South 6.0 mph 11.0 mph 57 % 0.00 in
13:31 82.4 °F 64.6 °F 30.05 in SSE 10.0 mph 11.0 mph 55 % 0.00 in
13:36 82.4 °F 65.7 °F 30.05 in South 9.0 mph 11.0 mph 57 % 0.00 in
13:41 82.8 °F 63.9 °F 30.05 in SSW 5.0 mph 12.0 mph 53 % 0.00 in
13:46 83.1 °F 66.4 °F 30.05 in SE 5.0 mph 12.0 mph 57 % 0.00 in
13:51 83.3 °F 64.9 °F 30.04 in SSW 5.0 mph 12.0 mph 54 % 0.00 in
13:56 83.5 °F 66.6 °F 30.04 in West 3.0 mph 12.0 mph 57 % 0.00 in
14:01 83.3 °F 66.0 °F 30.04 in South 3.0 mph 12.0 mph 56 % 0.00 in
14:06 82.8 °F 65.5 °F 30.04 in SE 4.0 mph 11.0 mph 56 % 0.00 in
14:11 82.8 °F 64.9 °F 30.04 in SSW 4.0 mph 12.0 mph 55 % 0.00 in
14:16 82.2 °F 64.4 °F 30.04 in SSE 4.0 mph 12.0 mph 55 % 0.00 in
14:21 82.4 °F 65.1 °F 30.04 in SSE 5.0 mph 12.0 mph 56 % 0.00 in
14:26 82.2 °F 65.5 °F 30.04 in SSW 5.0 mph 12.0 mph 57 % 0.00 in
14:31 82.2 °F 66.0 °F 30.03 in SSW 5.0 mph 12.0 mph 58 % 0.00 in
14:36 82.8 °F 65.5 °F 30.03 in SE 3.0 mph 12.0 mph 56 % 0.00 in
14:41 82.4 °F 65.1 °F 30.03 in ESE 1.0 mph 10.0 mph 56 % 0.00 in
14:42 82.4 °F 65.1 °F 30.03 in SE 3.0 mph 10.0 mph 56 % 0.00 in
14:47 82.4 °F 65.1 °F 30.03 in East 5.0 mph 11.0 mph 56 % 0.00 in
14:52 82.8 °F 66.6 °F 30.03 in SE 4.0 mph 11.0 mph 58 % 0.00 in
14:57 82.9 °F 66.6 °F 30.03 in SSE 5.0 mph 11.0 mph 58 % 0.00 in
15:02 83.7 °F 67.3 °F 30.02 in SE 2.0 mph 10.0 mph 58 % 0.00 in
15:07 84.0 °F 66.2 °F 30.02 in SSE 5.0 mph 12.0 mph 55 % 0.00 in
15:12 83.7 °F 66.4 °F 30.02 in ESE 7.0 mph 13.0 mph 56 % 0.00 in
15:17 83.8 °F 66.9 °F 30.02 in SW 6.0 mph 13.0 mph 57 % 0.00 in
15:22 83.1 °F 66.7 °F 30.02 in SE 3.0 mph 13.0 mph 58 % 0.00 in
15:27 83.7 °F 67.8 °F 30.02 in SE 4.0 mph 12.0 mph 59 % 0.00 in
15:32 83.1 °F 66.4 °F 30.02 in South 2.0 mph 12.0 mph 57 % 0.00 in
15:33 82.9 °F 66.2 °F 30.02 in SE 3.0 mph 12.0 mph 57 % 0.00 in
15:38 82.9 °F 66.6 °F 30.02 in SSE 7.0 mph 10.0 mph 58 % 0.00 in
15:43 83.3 °F 66.6 °F 30.01 in SSW 7.0 mph 12.0 mph 57 % 0.00 in
15:48 82.9 °F 67.1 °F 30.01 in SE 7.0 mph 12.0 mph 59 % 0.00 in
15:53 83.5 °F 67.1 °F 30.01 in East 4.0 mph 12.0 mph 58 % 0.00 in
15:58 83.7 °F 67.3 °F 30.01 in SE 6.0 mph 11.0 mph 58 % 0.00 in
16:03 83.8 °F 66.0 °F 30.01 in SSE 6.0 mph 11.0 mph 55 % 0.00 in
16:08 84.0 °F 66.6 °F 30.01 in SW 6.0 mph 12.0 mph 56 % 0.00 in
16:13 83.8 °F 66.9 °F 30.01 in SSE 4.0 mph 15.0 mph 57 % 0.00 in
16:18 84.0 °F 66.6 °F 30.01 in SSW 6.0 mph 15.0 mph 56 % 0.00 in
16:23 83.8 °F 66.9 °F 30.00 in SSE 4.0 mph 15.0 mph 57 % 0.00 in
16:28 83.8 °F 66.9 °F 30.00 in ESE 6.0 mph 12.0 mph 57 % 0.00 in
16:33 83.1 °F 66.7 °F 30.00 in SSE 7.0 mph 13.0 mph 58 % 0.00 in
16:38 83.1 °F 66.4 °F 30.00 in SSE 10.0 mph 13.0 mph 57 % 0.00 in
16:43 83.5 °F 67.6 °F 30.00 in SSE 4.0 mph 14.0 mph 59 % 0.00 in
16:48 83.5 °F 66.2 °F 30.00 in SE 2.0 mph 14.0 mph 56 % 0.00 in
16:53 83.7 °F 66.4 °F 30.00 in SE 10.0 mph 14.0 mph 56 % 0.00 in
16:58 83.5 °F 66.6 °F 29.99 in ESE 3.0 mph 12.0 mph 57 % 0.00 in
16:59 83.5 °F 66.2 °F 29.99 in East 7.0 mph 12.0 mph 56 % 0.00 in
17:04 83.7 °F 66.7 °F 29.99 in SSW 9.0 mph 12.0 mph 57 % 0.00 in
17:09 83.7 °F 67.3 °F 29.99 in South 10.0 mph 12.0 mph 58 % 0.00 in
17:14 83.5 °F 65.7 °F 29.99 in SE 6.0 mph 12.0 mph 55 % 0.00 in
17:19 83.3 °F 66.0 °F 29.99 in SE 5.0 mph 15.0 mph 56 % 0.00 in
17:24 83.5 °F 67.1 °F 29.99 in SW 3.0 mph 15.0 mph 58 % 0.00 in
17:29 83.3 °F 66.9 °F 29.99 in SSE 8.0 mph 15.0 mph 58 % 0.00 in
17:34 83.3 °F 66.9 °F 29.99 in South 5.0 mph 11.0 mph 58 % 0.00 in
17:39 82.9 °F 67.1 °F 29.99 in SSE 5.0 mph 11.0 mph 59 % 0.00 in
17:44 82.6 °F 66.7 °F 29.99 in SSE 7.0 mph 11.0 mph 59 % 0.00 in
17:49 82.8 °F 67.5 °F 29.99 in SSE 7.0 mph 11.0 mph 60 % 0.00 in
17:54 82.8 °F 67.5 °F 29.99 in SSE 8.0 mph 10.0 mph 60 % 0.00 in
17:59 82.4 °F 66.2 °F 29.99 in ESE 10.0 mph 13.0 mph 58 % 0.00 in
18:04 82.0 °F 66.4 °F 30.00 in ESE 7.0 mph 13.0 mph 59 % 0.00 in
18:09 81.9 °F 66.2 °F 30.00 in East 9.0 mph 13.0 mph 59 % 0.00 in
18:14 81.9 °F 66.6 °F 30.00 in South 5.0 mph 12.0 mph 60 % 0.00 in
18:19 81.9 °F 66.2 °F 30.00 in South 4.0 mph 12.0 mph 59 % 0.00 in
18:24 81.9 °F 66.6 °F 30.00 in South 5.0 mph 11.0 mph 60 % 0.00 in
18:29 81.9 °F 66.2 °F 30.00 in SE 9.0 mph 11.0 mph 59 % 0.00 in
18:34 81.3 °F 65.1 °F 30.00 in SE 6.0 mph 11.0 mph 58 % 0.00 in
18:39 81.0 °F 65.3 °F 30.00 in SSE 8.0 mph 13.0 mph 59 % 0.00 in
18:44 81.0 °F 65.3 °F 30.00 in South 4.0 mph 13.0 mph 59 % 0.00 in
18:49 80.8 °F 65.1 °F 30.00 in SSE 4.0 mph 13.0 mph 59 % 0.00 in
18:54 80.4 °F 65.3 °F 30.00 in SSE 3.0 mph 12.0 mph 60 % 0.00 in
18:59 80.2 °F 63.7 °F 30.00 in SSE 4.0 mph 12.0 mph 57 % 0.00 in
19:04 80.2 °F 62.6 °F 30.00 in ESE 9.0 mph 12.0 mph 55 % 0.00 in
19:09 80.1 °F 62.4 °F 30.00 in South 5.0 mph 11.0 mph 55 % 0.00 in
19:14 79.9 °F 61.7 °F 30.00 in SSE 5.0 mph 11.0 mph 54 % 0.00 in
19:19 79.7 °F 61.0 °F 30.00 in SSE 3.0 mph 11.0 mph 53 % 0.00 in
19:24 79.3 °F 60.8 °F 30.00 in SE 5.0 mph 10.0 mph 53 % 0.00 in
19:29 79.2 °F 60.6 °F 30.00 in ESE 7.0 mph 10.0 mph 53 % 0.00 in
19:34 78.8 °F 60.3 °F 30.00 in SE 6.0 mph 10.0 mph 53 % 0.00 in
19:39 78.6 °F 60.1 °F 30.00 in South 7.0 mph 9.0 mph 53 % 0.00 in
19:45 78.4 °F 60.4 °F 30.00 in South 5.0 mph 10.0 mph 54 % 0.00 in
19:50 77.9 °F 60.4 °F 30.01 in SE 5.0 mph 10.0 mph 55 % 0.00 in
19:55 77.7 °F 60.8 °F 30.01 in SSE 2.0 mph 10.0 mph 56 % 0.00 in
20:00 77.4 °F 61.0 °F 30.01 in SE 5.0 mph 8.0 mph 57 % 0.00 in
20:05 77.2 °F 61.3 °F 30.01 in SSW 6.0 mph 8.0 mph 58 % 0.00 in
20:10 76.8 °F 61.3 °F 30.01 in South 2.0 mph 8.0 mph 59 % 0.00 in
20:15 76.5 °F 61.5 °F 30.01 in SSE 3.0 mph 8.0 mph 60 % 0.00 in
20:20 76.3 °F 61.9 °F 30.01 in ESE 4.0 mph 8.0 mph 61 % 0.00 in
20:25 76.3 °F 62.2 °F 30.01 in East 4.0 mph 7.0 mph 62 % 0.00 in
20:30 76.1 °F 62.6 °F 30.01 in ESE 5.0 mph 6.0 mph 63 % 0.00 in
20:35 75.9 °F 62.4 °F 30.01 in ESE 3.0 mph 7.0 mph 63 % 0.00 in
20:40 75.7 °F 62.8 °F 30.02 in East 3.0 mph 7.0 mph 64 % 0.00 in
20:45 75.6 °F 63.0 °F 30.02 in East 2.0 mph 7.0 mph 65 % 0.00 in
20:50 75.4 °F 63.1 °F 30.02 in SSE 2.0 mph 5.0 mph 66 % 0.00 in
20:55 75.0 °F 63.3 °F 30.02 in East 5.0 mph 5.0 mph 67 % 0.00 in
21:00 75.0 °F 64.2 °F 30.02 in SSE 4.0 mph 7.0 mph 69 % 0.00 in
21:05 75.0 °F 64.6 °F 30.02 in SSE 3.0 mph 7.0 mph 70 % 0.00 in
21:10 75.0 °F 64.9 °F 30.03 in ESE 4.0 mph 7.0 mph 71 % 0.00 in
21:15 75.0 °F 64.9 °F 30.03 in Calm   7.0 mph 71 % 0.00 in
21:20 74.8 °F 65.1 °F 30.04 in ESE 1.0 mph 7.0 mph 72 % 0.00 in
21:25 74.5 °F 65.3 °F 30.04 in ESE 5.0 mph 7.0 mph 73 % 0.00 in
21:30 74.5 °F 65.7 °F 30.04 in SSE 1.0 mph 5.0 mph 74 % 0.00 in
21:35 74.1 °F 65.7 °F 30.04 in SSE 2.0 mph 5.0 mph 75 % 0.00 in
21:40 74.1 °F 66.0 °F 30.04 in SSW 1.0 mph 5.0 mph 76 % 0.00 in
21:45 73.9 °F 66.2 °F 30.04 in South 3.0 mph 4.0 mph 77 % 0.00 in
21:50 73.8 °F 66.0 °F 30.04 in SSE 2.0 mph 4.0 mph 77 % 0.00 in
21:55 73.8 °F 66.9 °F 30.04 in SSE 4.0 mph 6.0 mph 79 % 0.00 in
22:00 73.8 °F 67.3 °F 30.04 in SSE 4.0 mph 8.0 mph 80 % 0.00 in
22:05 73.9 °F 67.5 °F 30.05 in East 4.0 mph 9.0 mph 80 % 0.00 in
22:10 73.9 °F 67.8 °F 30.05 in East 4.0 mph 9.0 mph 81 % 0.00 in
22:15 73.8 °F 67.6 °F 30.05 in SE 2.0 mph 9.0 mph 81 % 0.00 in
22:20 73.6 °F 67.8 °F 30.05 in SSW 6.0 mph 8.0 mph 82 % 0.00 in
22:25 73.6 °F 67.8 °F 30.05 in SE 2.0 mph 9.0 mph 82 % 0.00 in
22:30 73.2 °F 67.8 °F 30.05 in SE 1.0 mph 9.0 mph 83 % 0.00 in
22:35 73.2 °F 67.8 °F 30.05 in ESE 2.0 mph 9.0 mph 83 % 0.00 in
22:40 73.2 °F 68.2 °F 30.06 in SE 3.0 mph 6.0 mph 84 % 0.00 in
22:45 73.0 °F 68.0 °F 30.06 in South 2.0 mph 6.0 mph 84 % 0.00 in
22:50 72.9 °F 68.0 °F 30.06 in East 2.0 mph 5.0 mph 85 % 0.00 in
22:55 72.7 °F 67.8 °F 30.06 in ESE 2.0 mph 5.0 mph 85 % 0.00 in
23:00 72.7 °F 67.8 °F 30.05 in East 3.0 mph 4.0 mph 85 % 0.00 in
23:05 72.5 °F 68.0 °F 30.06 in ESE 2.0 mph 4.0 mph 86 % 0.00 in
23:10 72.5 °F 68.0 °F 30.06 in ESE 1.0 mph 4.0 mph 86 % 0.00 in
23:15 72.3 °F 68.2 °F 30.05 in SE 2.0 mph 5.0 mph 87 % 0.00 in
23:21 72.3 °F 68.2 °F 30.05 in SE 2.0 mph 5.0 mph 87 % 0.00 in
23:26 72.3 °F 68.2 °F 30.04 in East 3.0 mph 5.0 mph 87 % 0.00 in
23:30 72.3 °F 68.5 °F 30.04 in SSE 4.0 mph 5.0 mph 88 % 0.00 in
23:36 72.1 °F 68.4 °F 30.05 in ESE 1.0 mph 5.0 mph 88 % 0.00 in
23:41 72.1 °F 68.7 °F 30.04 in ESE 4.0 mph 6.0 mph 89 % 0.00 in
23:46 72.1 °F 68.7 °F 30.04 in ESE 4.0 mph 6.0 mph 89 % 0.00 in
23:51 72.0 °F 68.5 °F 30.04 in ESE 2.0 mph 6.0 mph 89 % 0.00 in
23:56 72.0 °F 68.9 °F 30.05 in SSE 1.0 mph 5.0 mph 90 % 0.00 in
Spring, Texas: Villages of Bridgestone
Compliments of Weather Underground - 2.75 mb

Script developed by  Jim McMurry - jmcmurry@mwt.net Adapted for the template by  Wim van der Kuil - Leuven-Template.eu

You find our weather info also at:

UK Metoffice

WeatherCloud

Weather Underground

Mid-South Weather Network

AWEKAS

Citizen Weather Observer Program (CWOP)

HAMweather, WeatherForYou, PWS Weather

Equipment we use:

Weather-station
Davis Vantage Vue

Weather-program
Meteohub

Weather-server
Debian 7.9 x86 (Guest)

Provider
DreamHost

Davis Vantage Vue

Meteohub

Debian 7.9 x86 (Guest)

DreamHost